EGNT

Newcastle Airport

Newcastle, United Kingdom
METAR EGNT 170320Z VRB02KT 9999 FEW028 10/08 Q1012
Observed Flight Rules
Oct-17 @ 03:20 UTC (12 minutes ago) Visual Flight Rules
Wind Visibility Clouds
Variable at 2 knots 10,000+ meters
  • Few at 2,800' AGL
Temperatures Readings
Current 10°C / 50°F
Dewpoint 8°C / 46°F
Humidity 88%
Altimeter 29.88" Hg
Pressure 1012 hPa
Elevation 81
METAR EGNT 170320Z VRB02KT 9999 FEW028 10/08 Q1012
Observed Flight Rules
Oct-17 @ 03:20 UTC
(12 minutes ago)
VFR
Wind Visibility
Variable at 2 knots 10,000+ meters
Clouds
  • Few at 2,800' AGL
Temperature Dewpoint
10°C / 50°F 8°C / 46°F
Humidity Altimeter Pressure
88% 29.88" Hg 1012 hPa